createdAt,value
2019-05-11T00:01:41.576Z,99873.94
2019-05-11T00:04:46.319Z,99874.19
2019-05-11T00:07:51.432Z,99871.39
2019-05-11T00:10:56.212Z,99868.12
2019-05-11T00:14:01.564Z,99865.78
2019-05-11T00:17:06.331Z,99871.30
2019-05-11T00:20:11.766Z,99862.45
2019-05-11T00:23:16.580Z,99844.41
2019-05-11T00:26:21.582Z,99831.56
2019-05-11T00:29:27.449Z,99830.94
2019-05-11T00:32:32.620Z,99816.01
2019-05-11T00:35:37.633Z,99805.77
2019-05-11T00:38:42.425Z,99800.06
2019-05-11T00:41:47.179Z,99791.38
2019-05-11T00:44:52.040Z,99785.39
2019-05-11T00:47:57.221Z,99783.27
2019-05-11T00:51:01.961Z,99788.49
2019-05-11T00:54:07.042Z,99778.16
2019-05-11T00:57:11.840Z,99770.98
2019-05-11T01:00:17.288Z,99766.71
2019-05-11T01:03:22.653Z,99759.17
2019-05-11T01:06:27.518Z,99756.70
2019-05-11T01:09:32.321Z,99751.48
2019-05-11T01:12:37.188Z,99750.30
2019-05-11T01:15:42.029Z,99739.84
2019-05-11T01:18:46.822Z,99729.11
2019-05-11T01:21:51.680Z,99723.19
2019-05-11T01:24:56.517Z,99714.08
2019-05-11T01:28:01.372Z,99697.62
2019-05-11T01:31:06.267Z,99680.05
2019-05-11T01:34:11.093Z,99667.62
2019-05-11T01:37:15.888Z,99668.91
2019-05-11T01:40:20.971Z,99662.94
2019-05-11T01:43:25.993Z,99660.47
2019-05-11T01:46:30.721Z,99656.04
2019-05-11T01:49:35.553Z,99664.58
2019-05-11T01:52:40.745Z,99665.90
2019-05-11T01:55:45.531Z,99650.44
2019-05-11T01:58:50.278Z,99651.36
2019-05-11T02:01:55.653Z,99627.76
2019-05-11T02:05:38.422Z,99638.25
2019-05-11T02:08:43.187Z,99624.62
2019-05-11T02:11:47.968Z,99621.61
2019-05-11T02:14:52.746Z,99621.69
2019-05-11T02:17:57.502Z,99616.80
2019-05-11T02:21:02.231Z,99611.19
2019-05-11T02:24:07.173Z,99617.83
2019-05-11T02:27:11.933Z,99625.83
2019-05-11T02:30:18.562Z,99621.11
2019-05-11T02:33:23.337Z,99629.72
2019-05-11T02:36:28.402Z,99630.03
2019-05-11T02:39:33.164Z,99637.50
2019-05-11T02:42:38.321Z,99637.11
2019-05-11T02:45:44.045Z,99643.71
2019-05-11T02:48:48.802Z,99629.94
2019-05-11T02:51:54.348Z,99628.15
2019-05-11T02:55:01.535Z,99621.40
2019-05-11T02:58:07.631Z,99624.58
2019-05-11T03:01:12.666Z,99618.11
2019-05-11T03:04:17.416Z,99615.65
2019-05-11T03:07:22.486Z,99608.66
2019-05-11T03:10:27.238Z,99605.83
2019-05-11T03:13:32.284Z,99597.91
2019-05-11T03:16:37.369Z,99590.44
2019-05-11T03:19:42.147Z,99584.22
2019-05-11T03:22:47.643Z,99589.66
2019-05-11T03:25:52.452Z,99586.28
2019-05-11T03:28:57.398Z,99586.69
2019-05-11T03:32:02.162Z,99582.90
2019-05-11T03:35:07.145Z,99578.95
2019-05-11T03:38:12.339Z,99574.66
2019-05-11T03:41:17.403Z,99576.66
2019-05-11T03:44:22.806Z,99577.44
2019-05-11T03:47:28.237Z,99580.68
2019-05-11T03:50:33.330Z,99582.25
2019-05-11T03:53:38.353Z,99575.77
2019-05-11T03:56:43.153Z,99580.98
2019-05-11T03:59:47.996Z,99583.98
2019-05-11T04:02:52.725Z,99582.16
2019-05-11T04:05:57.895Z,99581.19
2019-05-11T04:09:04.601Z,99574.37
2019-05-11T04:12:09.359Z,99576.44
2019-05-11T04:15:14.337Z,99569.83
2019-05-11T04:18:19.339Z,99568.91
2019-05-11T04:21:24.450Z,99566.59
2019-05-11T04:24:29.183Z,99574.73
2019-05-11T04:27:34.319Z,99576.83
2019-05-11T04:30:40.122Z,99570.91
2019-05-11T04:33:45.846Z,99564.61
2019-05-11T04:36:50.592Z,99569.03
2019-05-11T04:39:55.645Z,99568.52
2019-05-11T04:43:00.388Z,99571.36
2019-05-11T04:46:05.227Z,99570.97
2019-05-11T04:49:09.962Z,99582.53
2019-05-11T04:52:15.036Z,99575.77
2019-05-11T04:55:20.534Z,99580.27
2019-05-11T04:58:25.292Z,99578.96
2019-05-11T05:01:30.329Z,99583.24
2019-05-11T05:04:35.191Z,99590.78
2019-05-11T05:07:47.744Z,99583.91
2019-05-11T05:10:46.768Z,99582.30
2019-05-11T05:13:53.623Z,99585.55
2019-05-11T05:16:58.361Z,99582.72
2019-05-11T05:20:03.123Z,99579.73
2019-05-11T05:23:07.894Z,99587.97
2019-05-11T05:26:12.666Z,99589.03
2019-05-11T05:29:18.269Z,99595.95
2019-05-11T05:32:23.261Z,99587.86
2019-05-11T05:35:28.239Z,99591.95
2019-05-11T05:38:32.989Z,99597.25
2019-05-11T05:41:38.805Z,99603.47
2019-05-11T05:44:43.600Z,99608.46
2019-05-11T05:47:48.649Z,99604.57
2019-05-11T05:50:53.423Z,99606.28
2019-05-11T05:53:58.424Z,99605.27
2019-05-11T05:57:03.181Z,99594.41
2019-05-11T06:00:09.746Z,99595.77
2019-05-11T06:03:14.773Z,99604.18
2019-05-11T06:06:19.643Z,99605.73
2019-05-11T06:09:24.386Z,99599.74
2019-05-11T06:12:29.497Z,99600.67
2019-05-11T06:15:34.452Z,99599.58
2019-05-11T06:18:39.477Z,99602.86
2019-05-11T06:21:44.442Z,99599.97
2019-05-11T06:24:49.366Z,99596.19
2019-05-11T06:27:54.466Z,99594.23
2019-05-11T06:30:59.865Z,99601.20
2019-05-11T06:34:04.735Z,99604.13
2019-05-11T06:37:09.544Z,99606.99
2019-05-11T06:40:14.683Z,99615.11
2019-05-11T06:43:20.181Z,99614.19
2019-05-11T06:46:25.041Z,99610.21
2019-05-11T06:49:30.148Z,99607.36
2019-05-11T06:52:35.336Z,99611.17
2019-05-11T06:55:40.167Z,99607.47
2019-05-11T06:58:45.653Z,99604.64
2019-05-11T07:01:50.624Z,99597.08
2019-05-11T07:04:55.372Z,99604.37
2019-05-11T07:08:00.219Z,99603.22
2019-05-11T07:11:05.899Z,99609.25
2019-05-11T07:14:20.702Z,99593.53
2019-05-11T07:17:19.318Z,99604.61
2019-05-11T07:20:24.181Z,99610.34
2019-05-11T07:23:28.989Z,99614.14
2019-05-11T07:26:34.125Z,99612.19
2019-05-11T07:29:38.947Z,99623.03
2019-05-11T07:32:43.795Z,99612.95
2019-05-11T07:35:48.708Z,99612.43
2019-05-11T07:38:54.916Z,99602.66
2019-05-11T07:41:59.989Z,99609.61
2019-05-11T07:45:05.505Z,99610.88
2019-05-11T07:48:10.615Z,99617.80
2019-05-11T07:51:18.087Z,99615.91
2019-05-11T07:54:22.541Z,99619.51
2019-05-11T07:57:28.915Z,99624.62
2019-05-11T08:00:37.437Z,99630.61
2019-05-11T08:03:41.434Z,99632.59
2019-05-11T08:06:47.900Z,99633.36
2019-05-11T08:09:52.823Z,99640.69
2019-05-11T08:12:58.762Z,99639.84
2019-05-11T08:16:04.203Z,99647.08
2019-05-11T08:19:10.807Z,99645.28
2019-05-11T08:22:15.754Z,99653.34
2019-05-11T08:25:20.584Z,99661.02
2019-05-11T08:28:25.772Z,99664.07
2019-05-11T08:31:30.567Z,99666.28
2019-05-11T08:34:35.630Z,99658.94
2019-05-11T08:37:41.452Z,99653.33
2019-05-11T08:40:48.473Z,99661.82
2019-05-11T08:43:53.328Z,99678.91
2019-05-11T08:46:58.525Z,99665.48
2019-05-11T08:50:03.539Z,99654.66
2019-05-11T08:53:08.683Z,99672.44
2019-05-11T08:56:13.701Z,99673.73
2019-05-11T08:59:18.887Z,99677.67
2019-05-11T09:02:24.034Z,99677.67
2019-05-11T09:05:29.209Z,99679.71
2019-05-11T09:08:34.018Z,99679.00
2019-05-11T09:11:39.853Z,99671.55
2019-05-11T09:14:45.021Z,99677.67
2019-05-11T09:17:50.125Z,99681.00
2019-05-11T09:20:54.998Z,99686.34
2019-05-11T09:24:00.153Z,99686.34
2019-05-11T09:27:05.000Z,99697.00
2019-05-11T09:30:10.246Z,99683.09
2019-05-11T09:33:18.504Z,99694.92
2019-05-11T09:36:22.005Z,99694.92
2019-05-11T09:39:28.110Z,99697.97
2019-05-11T09:42:33.086Z,99711.41
2019-05-11T09:45:48.116Z,99719.98
2019-05-11T09:48:48.394Z,99716.18
2019-05-11T09:51:53.323Z,99724.50
2019-05-11T09:54:58.247Z,99728.77
2019-05-11T09:58:03.104Z,99737.28
2019-05-11T10:01:08.948Z,99758.19
2019-05-11T10:04:13.917Z,99774.86
2019-05-11T10:07:19.015Z,99793.53
2019-05-11T10:10:24.167Z,99798.28
2019-05-11T10:13:29.125Z,99782.31
2019-05-11T10:16:34.012Z,99779.48
2019-05-11T10:19:39.653Z,99773.44
2019-05-11T10:22:44.673Z,99775.30
2019-05-11T10:25:49.490Z,99779.87
2019-05-11T10:28:54.617Z,99764.26
2019-05-11T10:31:59.802Z,99775.83
2019-05-11T10:35:04.926Z,99770.09
2019-05-11T10:38:10.076Z,99771.69
2019-05-11T10:41:15.137Z,99771.52
2019-05-11T10:44:20.360Z,99771.13
2019-05-11T10:47:27.159Z,99764.05
2019-05-11T10:50:32.673Z,99767.99
2019-05-11T10:53:38.416Z,99762.82
2019-05-11T10:56:43.414Z,99760.20
2019-05-11T10:59:48.978Z,99752.15
2019-05-11T11:02:53.913Z,99752.79
2019-05-11T11:05:59.131Z,99739.53
2019-05-11T11:09:05.521Z,99739.53
2019-05-11T11:12:10.627Z,99741.48
2019-05-11T11:15:18.144Z,99744.06
2019-05-11T11:18:22.581Z,99746.47
2019-05-11T11:21:27.977Z,99744.65
2019-05-11T11:24:32.979Z,99731.20
2019-05-11T11:27:38.195Z,99731.20
2019-05-11T11:30:43.857Z,99736.64
2019-05-11T11:33:49.203Z,99743.56
2019-05-11T11:36:57.857Z,99747.05
2019-05-11T11:40:02.037Z,99802.58
2019-05-11T11:43:08.674Z,99802.58
2019-05-11T11:46:13.964Z,99788.33
2019-05-11T11:49:19.070Z,99788.33
2019-05-11T11:52:23.928Z,99776.68
2019-05-11T11:55:29.200Z,99780.03
2019-05-11T11:58:34.021Z,99787.16
2019-05-11T12:01:38.823Z,99781.93
2019-05-11T12:04:43.647Z,99782.34
2019-05-11T12:07:49.034Z,99788.23
2019-05-11T12:10:54.988Z,99791.27
2019-05-11T12:14:00.255Z,99783.00
2019-05-11T12:17:08.697Z,99762.80
2019-05-11T12:20:13.093Z,99773.88
2019-05-11T12:23:18.516Z,99776.70
2019-05-11T12:26:23.610Z,99769.50
2019-05-11T12:29:28.645Z,99768.16
2019-05-11T12:32:39.828Z,99774.83
2019-05-11T12:35:44.698Z,99814.75
2019-05-11T12:38:49.918Z,99846.80
2019-05-11T12:41:55.086Z,99846.80
2019-05-11T12:44:59.983Z,99875.47
2019-05-11T12:48:05.163Z,99884.94
2019-05-11T12:51:11.029Z,99875.58
2019-05-11T12:54:16.064Z,99880.02
2019-05-11T12:57:20.893Z,99882.47
2019-05-11T13:00:30.453Z,99889.52
2019-05-11T13:03:32.696Z,99891.03
2019-05-11T13:06:38.559Z,99900.45
2019-05-11T13:09:43.738Z,99900.95
2019-05-11T13:12:49.676Z,99889.47
2019-05-11T13:15:54.528Z,99887.36
2019-05-11T13:18:59.555Z,99899.33
2019-05-11T13:22:04.448Z,99892.30
2019-05-11T13:25:09.554Z,99889.23
2019-05-11T13:28:14.988Z,99906.16
2019-05-11T13:31:20.128Z,99907.69
2019-05-11T13:34:30.809Z,99923.69
2019-05-11T13:37:33.396Z,99919.41
2019-05-11T13:40:38.452Z,99913.00
2019-05-11T13:43:43.266Z,99914.35
2019-05-11T13:46:48.909Z,99930.52
2019-05-11T13:49:53.646Z,99936.60
2019-05-11T13:52:58.734Z,99944.86
2019-05-11T13:56:03.534Z,99964.11
2019-05-11T13:59:10.598Z,99974.22
2019-05-11T14:02:17.903Z,99975.59
2019-05-11T14:05:22.179Z,99973.37
2019-05-11T14:08:27.751Z,99976.55
2019-05-11T14:11:33.942Z,99980.69
2019-05-11T14:14:39.335Z,99976.14
2019-05-11T14:17:44.175Z,99973.34
2019-05-11T14:20:48.971Z,99974.55
2019-05-11T14:23:54.170Z,99980.34
2019-05-11T14:26:59.333Z,99993.71
2019-05-11T14:30:05.441Z,100017.03
2019-05-11T14:33:10.729Z,100027.75
2019-05-11T14:36:18.058Z,100039.00
2019-05-11T14:39:22.346Z,100067.10
2019-05-11T14:42:28.662Z,100075.97
2019-05-11T14:45:33.794Z,100095.11
2019-05-11T14:48:39.173Z,100109.40
2019-05-11T14:51:45.078Z,100102.52
2019-05-11T14:54:50.998Z,100105.70
2019-05-11T14:57:57.665Z,100114.50
2019-05-11T15:01:02.580Z,100117.13
2019-05-11T15:04:09.080Z,100102.17
2019-05-11T15:07:17.294Z,100102.92
2019-05-11T15:10:22.125Z,100110.00
2019-05-11T15:13:28.813Z,100107.69
2019-05-11T15:16:33.481Z,100106.49
2019-05-11T15:19:38.362Z,100111.61
2019-05-11T15:22:45.113Z,100116.22
2019-05-11T15:25:49.915Z,100126.98
2019-05-11T15:28:54.789Z,100133.31
2019-05-11T15:31:59.598Z,100141.59
2019-05-11T15:35:04.626Z,100150.72
2019-05-11T15:38:10.199Z,100166.23
2019-05-11T15:41:17.491Z,100179.37
2019-05-11T15:44:22.049Z,100184.19
2019-05-11T15:47:28.350Z,100197.49
2019-05-11T15:50:33.803Z,100205.11
2019-05-11T15:53:38.587Z,100205.69
2019-05-11T15:56:43.693Z,100214.87
2019-05-11T15:59:48.799Z,100232.98
2019-05-11T16:02:53.541Z,100251.58
2019-05-11T16:05:58.574Z,100254.88
2019-05-11T16:09:04.411Z,100257.98
2019-05-11T16:12:09.228Z,100278.21
2019-05-11T16:15:14.243Z,100284.53
2019-05-11T16:18:19.654Z,100294.13
2019-05-11T16:21:25.283Z,100309.13
2019-05-11T16:24:30.575Z,100316.13
2019-05-11T16:27:37.960Z,100333.81
2019-05-11T16:30:42.539Z,100326.14
2019-05-11T16:33:48.370Z,100338.95
2019-05-11T16:36:53.631Z,100347.09
2019-05-11T16:39:58.427Z,100348.62
2019-05-11T16:43:03.449Z,100360.83
2019-05-11T16:46:08.768Z,100379.03
2019-05-11T16:49:26.115Z,100387.33
2019-05-11T16:52:20.737Z,100393.77
2019-05-11T16:55:25.575Z,100405.45
2019-05-11T16:58:32.800Z,100409.42
2019-05-11T17:01:38.196Z,100408.45
2019-05-11T17:04:43.012Z,100405.24
2019-05-11T17:07:53.955Z,100414.41
2019-05-11T17:10:59.506Z,100430.73
2019-05-11T17:14:04.538Z,100435.67
2019-05-11T17:17:09.470Z,100438.10
2019-05-11T17:20:14.783Z,100444.94
2019-05-11T17:23:19.921Z,100454.95
2019-05-11T17:26:24.992Z,100458.95
2019-05-11T17:29:29.785Z,100472.48
2019-05-11T17:32:35.214Z,100471.48
2019-05-11T17:35:40.066Z,100488.36
2019-05-11T17:38:44.905Z,100494.55
2019-05-11T17:41:49.764Z,100506.34
2019-05-11T17:44:54.563Z,100518.22
2019-05-11T17:47:59.770Z,100529.70
2019-05-11T17:51:18.360Z,100539.65
2019-05-11T17:54:11.533Z,100547.41
2019-05-11T17:57:17.639Z,100559.36
2019-05-11T18:00:22.677Z,100569.52
2019-05-11T18:03:27.967Z,100581.34
2019-05-11T18:06:33.170Z,100608.91
2019-05-11T18:09:38.119Z,100616.83
2019-05-11T18:12:42.974Z,100630.73
2019-05-11T18:15:49.363Z,100647.64
2019-05-11T18:18:54.569Z,100656.01
2019-05-11T18:22:00.161Z,100667.30
2019-05-11T18:25:05.187Z,100680.13
2019-05-11T18:28:10.008Z,100685.92
2019-05-11T18:31:14.820Z,100695.47
2019-05-11T18:34:20.158Z,100702.47
2019-05-11T18:37:25.342Z,100715.88
2019-05-11T18:40:32.273Z,100712.94
2019-05-11T18:43:38.489Z,100718.38
2019-05-11T18:46:43.458Z,100724.49
2019-05-11T18:49:48.500Z,100728.69
2019-05-11T18:52:53.306Z,100731.44
2019-05-11T18:55:58.992Z,100739.76
2019-05-11T18:59:04.057Z,100743.75
2019-05-11T19:02:10.127Z,100755.13
2019-05-11T19:05:18.041Z,100756.89
2019-05-11T19:08:22.453Z,100769.66
2019-05-11T19:11:28.959Z,100778.99
2019-05-11T19:14:33.890Z,100785.97
2019-05-11T19:17:38.772Z,100797.80
2019-05-11T19:20:46.109Z,100799.56
2019-05-11T19:23:50.532Z,100805.00
2019-05-11T19:26:55.671Z,100818.61
2019-05-11T19:30:00.833Z,100821.56
2019-05-11T19:33:10.724Z,100821.66
2019-05-11T19:36:12.431Z,100828.25
2019-05-11T19:39:19.178Z,100837.09
2019-05-11T19:42:23.984Z,100836.70
2019-05-11T19:45:29.602Z,100845.52
2019-05-11T19:48:35.560Z,100857.31
2019-05-11T19:51:42.579Z,100863.09
2019-05-11T19:54:48.799Z,100869.75
2019-05-11T19:57:54.954Z,100876.34
2019-05-11T20:00:59.882Z,100894.28
2019-05-11T20:04:05.149Z,100900.22
2019-05-11T20:07:09.995Z,100900.61
2019-05-11T20:10:14.901Z,100913.38
2019-05-11T20:13:19.883Z,100919.61
2019-05-11T20:16:24.904Z,100923.55
2019-05-11T20:19:29.688Z,100925.80
2019-05-11T20:22:35.095Z,100943.77
2019-05-11T20:25:40.055Z,100949.13
2019-05-11T20:28:45.078Z,100952.70
2019-05-11T20:31:49.898Z,100954.34
2019-05-11T20:34:57.849Z,100959.20
2019-05-11T20:38:03.640Z,100969.32
2019-05-11T20:41:09.519Z,100970.27
2019-05-11T20:44:14.360Z,100979.95
2019-05-11T20:47:19.145Z,100981.72
2019-05-11T20:50:24.240Z,100988.00
2019-05-11T20:53:29.581Z,100991.48
2019-05-11T20:56:34.976Z,100997.25
2019-05-11T20:59:40.385Z,100994.25
2019-05-11T21:02:45.276Z,100992.96
2019-05-11T21:05:50.079Z,101004.73
2019-05-11T21:08:54.822Z,101000.78
2019-05-11T21:12:02.934Z,101003.08
2019-05-11T21:15:07.459Z,100997.07
2019-05-11T21:18:12.294Z,101007.59
2019-05-11T21:21:17.084Z,101016.25
2019-05-11T21:24:21.887Z,101020.18
2019-05-11T21:27:28.699Z,101017.41
2019-05-11T21:30:33.278Z,101019.53
2019-05-11T21:33:38.351Z,101019.63
2019-05-11T21:36:43.363Z,101024.55
2019-05-11T21:39:48.417Z,101035.35
2019-05-11T21:42:53.418Z,101040.73
2019-05-11T21:46:01.309Z,101046.82
2019-05-11T21:49:07.804Z,101047.19
2019-05-11T21:52:12.951Z,101051.14
2019-05-11T21:55:17.797Z,101062.69
2019-05-11T21:58:22.790Z,101059.20
2019-05-11T22:01:28.269Z,101064.42
2019-05-11T22:04:33.033Z,101075.25
2019-05-11T22:07:38.743Z,101081.73
2019-05-11T22:10:44.588Z,101084.27
2019-05-11T22:13:49.490Z,101089.93
2019-05-11T22:16:55.269Z,101101.84
2019-05-11T22:20:00.539Z,101109.30
2019-05-11T22:23:05.316Z,101114.00
2019-05-11T22:26:10.291Z,101118.83
2019-05-11T22:29:15.129Z,101121.94
2019-05-11T22:32:20.295Z,101125.55
2019-05-11T22:35:25.098Z,101130.69
2019-05-11T22:38:30.403Z,101128.05
2019-05-11T22:41:39.350Z,101129.58
2019-05-11T22:44:42.198Z,101135.30
2019-05-11T22:47:48.110Z,101140.88
2019-05-11T22:50:53.078Z,101144.55
2019-05-11T22:53:59.116Z,101139.48
2019-05-11T22:57:04.282Z,101152.33
2019-05-11T23:00:10.291Z,101146.21
2019-05-11T23:03:18.877Z,101157.20
2019-05-11T23:06:24.125Z,101164.45
2019-05-11T23:09:29.229Z,101167.75
2019-05-11T23:12:34.395Z,101176.34
2019-05-11T23:15:40.495Z,101175.63
2019-05-11T23:18:47.677Z,101179.19
2019-05-11T23:21:52.299Z,101176.28
2019-05-11T23:24:58.795Z,101185.63
2019-05-11T23:28:03.790Z,101189.66
2019-05-11T23:31:09.076Z,101187.67
2019-05-11T23:34:14.236Z,101192.25
2019-05-11T23:37:19.063Z,101200.59
2019-05-11T23:40:24.303Z,101193.96
2019-05-11T23:43:30.069Z,101203.57
2019-05-11T23:46:38.664Z,101209.03
2019-05-11T23:49:43.495Z,101207.98
2019-05-11T23:52:53.223Z,101207.75
2019-05-11T23:55:55.001Z,101204.12
2019-05-11T23:58:59.770Z,101205.63
